Time;durP1;ratioP1;P1;durP2;ratioP2;P2;SDS_P1;SDS_P2;PMS_P1;PMS_P2;Temp;Humidity;BMP_temperature;BMP_pressure;BME280_temperature;BME280_humidity;BME280_pressure;Samples;Min_cycle;Max_cycle;Signal;HPM_P1;HPM_P2
2023/07/17 00:01:13;;;;;;;5.57;2.70;;;;;;;;;;4936731;29;20110;-80
2023/07/17 00:03:38;;;;;;;5.70;2.70;;;;;;;;;;4956000;28;20772;-80
2023/07/17 00:06:06;;;;;;;9.82;2.92;;;;;;;;;;4957740;29;20031;-81
2023/07/17 00:08:32;;;;;;;7.07;2.47;;;;;;;;;;4940619;29;20106;-80
2023/07/17 00:10:58;;;;;;;6.03;2.83;;;;;;;;;;4940669;29;20471;-79
2023/07/17 00:13:24;;;;;;;10.93;3.05;;;;;;;;;;4940451;29;20035;-80
2023/07/17 00:15:49;;;;;;;7.70;2.65;;;;;;;;;;4940653;29;20131;-79
2023/07/17 00:18:15;;;;;;;7.63;3.20;;;;;;;;;;4957477;29;20093;-80
2023/07/17 00:20:40;;;;;;;6.35;2.58;;;;;;;;;;4940319;29;20055;-79
2023/07/17 00:23:06;;;;;;;7.22;2.63;;;;;;;;;;4940155;29;20531;-80
2023/07/17 00:25:32;;;;;;;5.60;2.50;;;;;;;;;;4957478;28;20518;-80
2023/07/17 00:27:57;;;;;;;5.00;2.70;;;;;;;;;;4957518;29;20479;-80
2023/07/17 00:30:23;;;;;;;6.25;3.28;;;;;;;;;;4940424;29;20086;-80
2023/07/17 00:32:48;;;;;;;6.68;2.80;;;;;;;;;;4957463;29;20063;-80
2023/07/17 00:35:14;;;;;;;8.77;2.58;;;;;;;;;;4940490;29;20023;-80
2023/07/17 00:37:40;;;;;;;6.05;2.88;;;;;;;;;;4940258;29;20028;-81
2023/07/17 00:40:08;;;;;;;7.35;2.70;;;;;;;;;;4940318;29;20031;-80
2023/07/17 00:42:35;;;;;;;9.13;3.00;;;;;;;;;;4940491;29;20515;-80
2023/07/17 00:45:00;;;;;;;9.55;3.50;;;;;;;;;;4957081;28;20108;-80
2023/07/17 00:47:27;;;;;;;6.50;2.85;;;;;;;;;;4957865;29;20038;-81
2023/07/17 00:49:53;;;;;;;9.80;3.10;;;;;;;;;;4909125;29;20122;-80
2023/07/17 00:52:19;;;;;;;6.97;2.95;;;;;;;;;;4957767;29;20059;-80
2023/07/17 00:54:44;;;;;;;7.00;3.55;;;;;;;;;;4941610;29;20035;-79
2023/07/17 00:57:11;;;;;;;10.40;3.13;;;;;;;;;;4958607;29;20042;-79
2023/07/17 00:59:37;;;;;;;8.32;2.78;;;;;;;;;;4959093;29;20090;-79
2023/07/17 01:02:03;;;;;;;7.05;2.72;;;;;;;;;;4961225;29;20114;-80
2023/07/17 01:04:28;;;;;;;10.30;3.20;;;;;;;;;;4972250;28;20040;-79
2023/07/17 01:06:54;;;;;;;6.80;2.90;;;;;;;;;;4972816;29;20107;-80
2023/07/17 01:09:21;;;;;;;7.78;3.17;;;;;;;;;;4954923;29;20038;-79
2023/07/17 01:11:49;;;;;;;11.07;2.80;;;;;;;;;;4955945;29;20103;-79
2023/07/17 01:14:16;;;;;;;6.68;3.00;;;;;;;;;;4979252;28;20027;-80
2023/07/17 01:16:42;;;;;;;11.63;3.00;;;;;;;;;;4962776;28;20135;-80
2023/07/17 01:19:07;;;;;;;12.70;3.38;;;;;;;;;;4962708;28;20023;-80
2023/07/17 01:21:35;;;;;;;9.85;3.08;;;;;;;;;;4954985;29;20031;-79
2023/07/17 01:24:02;;;;;;;7.00;3.00;;;;;;;;;;4944675;28;20035;-81
2023/07/17 01:26:27;;;;;;;6.45;2.72;;;;;;;;;;4942837;29;20106;-79
2023/07/17 01:28:53;;;;;;;8.75;3.28;;;;;;;;;;4924605;29;20035;-79
2023/07/17 01:31:18;;;;;;;8.13;3.30;;;;;;;;;;4957576;29;20103;-79
2023/07/17 01:33:45;;;;;;;8.00;3.53;;;;;;;;;;4940708;28;20043;-80
2023/07/17 01:36:11;;;;;;;9.60;2.70;;;;;;;;;;4941372;29;20398;-80
2023/07/17 01:38:37;;;;;;;8.65;2.67;;;;;;;;;;4941208;29;20110;-79
2023/07/17 01:41:02;;;;;;;10.52;3.30;;;;;;;;;;4911462;29;20081;-80
2023/07/17 01:43:30;;;;;;;10.95;3.20;;;;;;;;;;4941444;29;20505;-80
2023/07/17 01:45:55;;;;;;;7.90;3.05;;;;;;;;;;4924533;29;20031;-80
2023/07/17 01:48:21;;;;;;;9.95;3.22;;;;;;;;;;4939915;29;20027;-80
2023/07/17 01:50:47;;;;;;;7.70;3.40;;;;;;;;;;4939753;29;20034;-80
2023/07/17 01:53:13;;;;;;;7.32;3.10;;;;;;;;;;4939950;29;20035;-79
2023/07/17 01:55:38;;;;;;;8.35;3.63;;;;;;;;;;4939690;29;20035;-81
2023/07/17 01:58:04;;;;;;;7.45;3.40;;;;;;;;;;4955865;29;20487;-79
2023/07/17 02:00:30;;;;;;;7.60;2.97;;;;;;;;;;4938448;29;20035;-80
2023/07/17 02:02:55;;;;;;;7.85;2.63;;;;;;;;;;4938582;29;20114;-80
2023/07/17 02:05:21;;;;;;;6.50;3.05;;;;;;;;;;4922873;29;20031;-81
2023/07/17 02:07:47;;;;;;;9.88;3.67;;;;;;;;;;4938559;29;20031;-80
2023/07/17 02:10:13;;;;;;;7.38;3.30;;;;;;;;;;4938247;29;20071;-80
2023/07/17 02:12:38;;;;;;;7.95;3.22;;;;;;;;;;4938365;29;20491;-79
2023/07/17 02:15:05;;;;;;;9.10;3.35;;;;;;;;;;4922381;29;20090;-79
2023/07/17 02:17:34;;;;;;;7.40;3.15;;;;;;;;;;4938136;29;20491;-81
2023/07/17 02:20:00;;;;;;;6.63;2.95;;;;;;;;;;4922396;29;20031;-80
2023/07/17 02:22:27;;;;;;;10.23;3.08;;;;;;;;;;4921940;29;20047;-79
2023/07/17 02:24:54;;;;;;;;;;;;;;;;;;4938230;28;20130;-80
2023/07/17 02:27:20;;;;;;;9.07;3.38;;;;;;;;;;4954637;29;20399;-80
2023/07/17 02:29:47;;;;;;;7.03;3.45;;;;;;;;;;4955032;29;20071;-79
2023/07/17 02:32:13;;;;;;;11.57;3.45;;;;;;;;;;4937664;29;20102;-80
2023/07/17 02:34:38;;;;;;;7.28;3.22;;;;;;;;;;4954760;28;20524;-80
2023/07/17 02:37:08;;;;;;;11.38;3.47;;;;;;;;;;4937869;29;20031;-80
2023/07/17 02:39:34;;;;;;;7.03;3.38;;;;;;;;;;4937798;29;20039;-80
2023/07/17 02:41:59;;;;;;;7.13;3.20;;;;;;;;;;4954896;29;20027;-80
2023/07/17 02:44:25;;;;;;;7.28;4.38;;;;;;;;;;4954811;28;20506;-79
2023/07/17 02:46:50;;;;;;;9.20;3.55;;;;;;;;;;4954933;29;20061;-80
2023/07/17 02:49:15;;;;;;;6.47;3.03;;;;;;;;;;4937575;29;20519;-79
2023/07/17 02:51:41;;;;;;;11.07;3.40;;;;;;;;;;4905750;29;20043;-80
2023/07/17 02:54:07;;;;;;;7.60;2.88;;;;;;;;;;4954724;28;20161;-80
2023/07/17 02:56:32;;;;;;;7.20;3.30;;;;;;;;;;4954673;29;20074;-80
2023/07/17 02:58:58;;;;;;;8.57;3.35;;;;;;;;;;4937617;29;20114;-80
2023/07/17 03:01:23;;;;;;;7.78;3.47;;;;;;;;;;4921668;29;20102;-79
2023/07/17 03:03:49;;;;;;;7.72;3.28;;;;;;;;;;4954464;28;20471;-79
2023/07/17 03:06:14;;;;;;;7.18;3.60;;;;;;;;;;4954849;29;20031;-80
2023/07/17 03:08:40;;;;;;;6.45;3.05;;;;;;;;;;4954453;29;20402;-79
2023/07/17 03:11:05;;;;;;;12.45;3.60;;;;;;;;;;4921435;29;20027;-80
2023/07/17 03:13:32;;;;;;;8.00;3.40;;;;;;;;;;4921708;29;20498;-80
2023/07/17 03:16:00;;;;;;;11.45;3.75;;;;;;;;;;4954212;28;20035;-79
2023/07/17 03:18:26;;;;;;;9.15;3.63;;;;;;;;;;4937169;29;20043;-80
2023/07/17 03:20:52;;;;;;;6.80;3.35;;;;;;;;;;4955055;29;20027;-80
2023/07/17 03:23:18;;;;;;;8.25;3.70;;;;;;;;;;4922397;29;20027;-80
2023/07/17 03:25:46;;;;;;;6.75;3.38;;;;;;;;;;4941966;29;20027;-80
2023/07/17 03:28:12;;;;;;;9.32;3.22;;;;;;;;;;4967447;23;20256;-76
2023/07/17 03:30:38;;;;;;;13.30;4.28;;;;;;;;;;4936505;29;20130;-75
2023/07/17 03:33:04;;;;;;;9.30;3.78;;;;;;;;;;4954072;29;20038;-75
2023/07/17 03:35:29;;;;;;;7.60;3.75;;;;;;;;;;4937322;29;20034;-76
2023/07/17 03:37:55;;;;;;;9.68;3.67;;;;;;;;;;4921045;29;20035;-77
2023/07/17 03:40:21;;;;;;;7.40;3.28;;;;;;;;;;4961715;29;20523;-76
2023/07/17 03:42:46;;;;;;;10.77;3.65;;;;;;;;;;4942974;29;20027;-76
2023/07/17 03:45:13;;;;;;;10.30;4.40;;;;;;;;;;4930154;29;20035;-75
2023/07/17 03:47:39;;;;;;;9.48;3.88;;;;;;;;;;4945924;29;20567;-75
2023/07/17 03:50:05;;;;;;;8.60;3.75;;;;;;;;;;4929838;29;20092;-76
2023/07/17 03:52:31;;;;;;;8.27;3.30;;;;;;;;;;4961560;29;20058;-75
2023/07/17 03:54:56;;;;;;;7.55;3.40;;;;;;;;;;4921373;29;20387;-76
2023/07/17 03:57:22;;;;;;;10.32;3.83;;;;;;;;;;4936589;29;20031;-76
2023/07/17 03:59:53;;;;;;;9.30;3.92;;;;;;;;;;4937204;29;20063;-77
2023/07/17 04:02:23;;;;;;;10.73;3.97;;;;;;;;;;4922132;29;20035;-76
2023/07/17 04:04:50;;;;;;;10.30;3.83;;;;;;;;;;4937838;29;20118;-77
2023/07/17 04:07:16;;;;;;;7.90;3.83;;;;;;;;;;4921950;29;20058;-75
2023/07/17 04:09:42;;;;;;;11.27;4.68;;;;;;;;;;4954146;29;20060;-75
2023/07/17 04:12:08;;;;;;;9.05;3.67;;;;;;;;;;4936836;29;20036;-77
2023/07/17 04:14:34;;;;;;;9.05;4.10;;;;;;;;;;4937019;29;20137;-75
2023/07/17 04:17:01;;;;;;;10.48;3.95;;;;;;;;;;4921227;29;20443;-76
2023/07/17 04:19:27;;;;;;;10.93;4.10;;;;;;;;;;4937322;29;20031;-76
2023/07/17 04:21:53;;;;;;;9.23;4.05;;;;;;;;;;4936942;29;20102;-76
2023/07/17 04:24:19;;;;;;;9.40;3.78;;;;;;;;;;4953778;29;20031;-75
2023/07/17 04:26:47;;;;;;;14.95;4.90;;;;;;;;;;4936133;29;20034;-76
2023/07/17 04:29:14;;;;;;;8.63;3.25;;;;;;;;;;4936350;29;20094;-76
2023/07/17 04:31:40;;;;;;;10.35;3.75;;;;;;;;;;4920273;29;20039;-75
2023/07/17 04:34:05;;;;;;;9.35;4.53;;;;;;;;;;4936191;29;20110;-77
2023/07/17 04:36:31;;;;;;;11.25;3.80;;;;;;;;;;4919963;28;20046;-76
2023/07/17 04:38:57;;;;;;;12.02;3.80;;;;;;;;;;4920455;29;20042;-77
2023/07/17 04:41:23;;;;;;;8.60;3.50;;;;;;;;;;4904586;29;20031;-76
2023/07/17 04:43:49;;;;;;;10.23;3.85;;;;;;;;;;4936408;29;20086;-76
2023/07/17 04:46:16;;;;;;;11.27;3.60;;;;;;;;;;4936317;28;20534;-77
2023/07/17 04:48:41;;;;;;;14.75;3.95;;;;;;;;;;4936798;29;20035;-77
2023/07/17 04:51:07;;;;;;;11.25;3.95;;;;;;;;;;4939847;29;20511;-76
2023/07/17 04:53:33;;;;;;;15.23;4.05;;;;;;;;;;4923973;29;20027;-77
2023/07/17 04:55:59;;;;;;;8.45;3.50;;;;;;;;;;4924178;29;20038;-76
2023/07/17 04:58:25;;;;;;;11.45;4.68;;;;;;;;;;4940155;29;20035;-76
2023/07/17 05:00:51;;;;;;;10.75;4.00;;;;;;;;;;4939930;29;20122;-76
2023/07/17 05:03:16;;;;;;;13.63;4.13;;;;;;;;;;4907977;29;20122;-76
2023/07/17 05:05:50;;;;;;;7.45;3.83;;;;;;;;;;4939512;29;20035;-76
2023/07/17 05:08:17;;;;;;;10.40;4.20;;;;;;;;;;4923439;29;20034;-75
2023/07/17 05:10:43;;;;;;;10.75;3.72;;;;;;;;;;4939245;29;20114;-76
2023/07/17 05:13:09;;;;;;;7.95;3.83;;;;;;;;;;4923617;29;20031;-76
2023/07/17 05:15:35;;;;;;;8.55;3.63;;;;;;;;;;4939207;29;20070;-75
2023/07/17 05:18:03;;;;;;;9.65;3.67;;;;;;;;;;4923760;29;20027;-77
2023/07/17 05:20:28;;;;;;;9.07;3.80;;;;;;;;;;4939063;29;20098;-75
2023/07/17 05:22:55;;;;;;;13.43;3.65;;;;;;;;;;4939224;29;20019;-75
2023/07/17 05:25:21;;;;;;;9.57;4.07;;;;;;;;;;4955844;29;20031;-75
2023/07/17 05:27:47;;;;;;;7.72;3.25;;;;;;;;;;4938658;29;20037;-74
2023/07/17 05:30:14;;;;;;;11.38;4.15;;;;;;;;;;4938800;29;20526;-77
2023/07/17 05:32:39;;;;;;;11.18;3.95;;;;;;;;;;4955863;29;20102;-76
2023/07/17 05:35:06;;;;;;;8.32;3.67;;;;;;;;;;4923089;29;20035;-75
2023/07/17 05:37:33;;;;;;;11.13;4.05;;;;;;;;;;4938950;29;20027;-77
2023/07/17 05:39:59;;;;;;;11.48;3.95;;;;;;;;;;4938679;29;20114;-78
2023/07/17 05:42:25;;;;;;;8.10;3.85;;;;;;;;;;4938412;29;20111;-76
2023/07/17 05:44:50;;;;;;;9.43;4.05;;;;;;;;;;4938584;29;20439;-75
2023/07/17 05:47:16;;;;;;;8.95;4.25;;;;;;;;;;4922944;29;20131;-76
2023/07/17 05:49:41;;;;;;;9.07;4.03;;;;;;;;;;4938242;29;20398;-76
2023/07/17 05:52:07;;;;;;;13.38;4.28;;;;;;;;;;4938179;29;20059;-76
2023/07/17 05:54:33;;;;;;;14.02;4.13;;;;;;;;;;4922484;29;20065;-76
2023/07/17 05:56:59;;;;;;;9.40;3.72;;;;;;;;;;4922605;29;20479;-75
2023/07/17 05:59:25;;;;;;;13.48;4.45;;;;;;;;;;4938456;29;20039;-76
2023/07/17 06:01:51;;;;;;;7.95;3.80;;;;;;;;;;4955583;28;20495;-76
2023/07/17 06:04:16;;;;;;;7.57;3.65;;;;;;;;;;4956445;29;20035;-75
2023/07/17 06:06:42;;;;;;;8.98;4.38;;;;;;;;;;4938878;29;20131;-74
2023/07/17 06:09:07;;;;;;;10.98;4.10;;;;;;;;;;4939157;29;20083;-76
2023/07/17 06:11:33;;;;;;;10.27;4.25;;;;;;;;;;4938962;29;20480;-76
2023/07/17 06:13:59;;;;;;;9.80;4.15;;;;;;;;;;4948345;29;20051;-76
2023/07/17 06:16:24;;;;;;;8.52;3.95;;;;;;;;;;4970454;28;20027;-76
2023/07/17 06:18:50;;;;;;;13.45;4.43;;;;;;;;;;4955637;29;20015;-75
2023/07/17 06:21:16;;;;;;;9.00;4.07;;;;;;;;;;4957369;29;20038;-76
2023/07/17 06:23:41;;;;;;;11.40;4.50;;;;;;;;;;4956114;29;20043;-75
2023/07/17 06:26:07;;;;;;;9.38;4.05;;;;;;;;;;4955703;29;20059;-77
2023/07/17 06:28:32;;;;;;;8.00;3.63;;;;;;;;;;4944346;29;20031;-75
2023/07/17 06:30:58;;;;;;;8.02;4.00;;;;;;;;;;4956136;29;20470;-76
2023/07/17 06:33:24;;;;;;;12.30;3.83;;;;;;;;;;4955592;29;20031;-76
2023/07/17 06:35:49;;;;;;;9.85;4.22;;;;;;;;;;4955143;29;20028;-77
2023/07/17 06:38:15;;;;;;;8.40;3.83;;;;;;;;;;4922548;29;20451;-76
2023/07/17 06:40:40;;;;;;;10.63;3.97;;;;;;;;;;4955102;29;20082;-77
2023/07/17 06:43:06;;;;;;;14.85;5.03;;;;;;;;;;4955292;29;20422;-76
2023/07/17 06:45:33;;;;;;;9.23;4.03;;;;;;;;;;4955283;29;20023;-77
2023/07/17 06:47:59;;;;;;;7.53;3.92;;;;;;;;;;4955866;28;20038;-75
2023/07/17 06:50:24;;;;;;;12.13;4.05;;;;;;;;;;4938397;29;20445;-76
2023/07/17 06:52:50;;;;;;;9.95;4.20;;;;;;;;;;4938059;29;20193;-76
2023/07/17 06:55:16;;;;;;;11.13;3.90;;;;;;;;;;4922001;29;20035;-75
2023/07/17 06:57:41;;;;;;;10.32;4.07;;;;;;;;;;4954835;28;20510;-76
2023/07/17 07:00:07;;;;;;;8.25;4.25;;;;;;;;;;4955024;29;20054;-76
2023/07/17 07:02:33;;;;;;;9.90;4.10;;;;;;;;;;4954593;29;20122;-77
2023/07/17 07:04:59;;;;;;;10.63;4.18;;;;;;;;;;4937671;29;20042;-76
2023/07/17 07:07:24;;;;;;;8.85;3.83;;;;;;;;;;4954796;28;20031;-75
2023/07/17 07:09:50;;;;;;;12.85;4.47;;;;;;;;;;4921633;29;20040;-76
2023/07/17 07:12:16;;;;;;;11.63;3.97;;;;;;;;;;4936845;29;20087;-76
2023/07/17 07:14:41;;;;;;;9.45;3.65;;;;;;;;;;4954737;29;20452;-76
2023/07/17 07:17:07;;;;;;;7.30;3.47;;;;;;;;;;4955168;28;20035;-76
2023/07/17 07:19:33;;;;;;;13.07;4.05;;;;;;;;;;4954836;29;20046;-74
2023/07/17 07:21:58;;;;;;;11.18;3.50;;;;;;;;;;4955093;29;20062;-74
2023/07/17 07:24:24;;;;;;;9.48;4.15;;;;;;;;;;4954720;29;20023;-75
2023/07/17 07:26:49;;;;;;;7.47;3.20;;;;;;;;;;4954812;28;20070;-77
2023/07/17 07:29:15;;;;;;;11.50;3.40;;;;;;;;;;4954497;29;20513;-77
2023/07/17 07:31:40;;;;;;;7.32;3.55;;;;;;;;;;4905711;29;20061;-76
2023/07/17 07:34:06;;;;;;;10.55;3.53;;;;;;;;;;4936988;29;20028;-77
2023/07/17 07:36:31;;;;;;;11.80;3.30;;;;;;;;;;4921220;28;20415;-77
2023/07/17 07:38:57;;;;;;;6.93;3.30;;;;;;;;;;4954460;29;20031;-76
2023/07/17 07:41:23;;;;;;;9.40;3.72;;;;;;;;;;4954237;29;20031;-77
2023/07/17 07:43:48;;;;;;;9.45;3.95;;;;;;;;;;4954197;29;20512;-76
2023/07/17 07:46:14;;;;;;;9.23;3.92;;;;;;;;;;4921228;28;20038;-77
2023/07/17 07:48:40;;;;;;;12.25;3.90;;;;;;;;;;4937011;29;20023;-76
2023/07/17 07:51:05;;;;;;;8.80;3.50;;;;;;;;;;4953713;29;20406;-76
2023/07/17 07:53:31;;;;;;;11.98;3.75;;;;;;;;;;4953950;29;20037;-76
2023/07/17 07:55:56;;;;;;;11.20;3.85;;;;;;;;;;4937054;29;20039;-76
2023/07/17 07:58:22;;;;;;;8.48;3.63;;;;;;;;;;4936884;29;20459;-76
2023/07/17 08:00:47;;;;;;;9.07;4.38;;;;;;;;;;4954327;29;20546;-77
2023/07/17 08:03:13;;;;;;;13.60;4.03;;;;;;;;;;4953898;29;20035;-74
2023/07/17 08:05:39;;;;;;;11.55;3.88;;;;;;;;;;4937042;29;20027;-77
2023/07/17 08:08:04;;;;;;;8.23;3.63;;;;;;;;;;4954593;28;20074;-76
2023/07/17 08:10:30;;;;;;;10.75;4.30;;;;;;;;;;4937310;29;20027;-77
2023/07/17 08:12:57;;;;;;;14.18;3.90;;;;;;;;;;4954848;29;20035;-77
2023/07/17 08:15:22;;;;;;;9.70;4.28;;;;;;;;;;4954744;29;20039;-76
2023/07/17 08:17:48;;;;;;;10.82;4.47;;;;;;;;;;4955087;28;20151;-75
2023/07/17 08:20:14;;;;;;;16.48;4.40;;;;;;;;;;4954383;29;20509;-77
2023/07/17 08:22:39;;;;;;;9.48;4.28;;;;;;;;;;4921549;29;20035;-75
2023/07/17 08:25:05;;;;;;;10.38;4.20;;;;;;;;;;4957141;28;20487;-76
2023/07/17 08:27:31;;;;;;;8.27;3.80;;;;;;;;;;4940702;29;20050;-74
2023/07/17 08:29:59;;;;;;;13.93;4.30;;;;;;;;;;4941448;29;20107;-75
2023/07/17 08:32:25;;;;;;;7.57;3.75;;;;;;;;;;4957849;29;20039;-76
2023/07/17 08:34:50;;;;;;;11.65;4.13;;;;;;;;;;4940994;29;20097;-76
2023/07/17 08:37:16;;;;;;;8.95;4.05;;;;;;;;;;4958422;28;20087;-77
2023/07/17 08:39:41;;;;;;;12.43;4.03;;;;;;;;;;4961950;29;20039;-77
2023/07/17 08:42:08;;;;;;;8.27;4.72;;;;;;;;;;4946821;29;20126;-76
2023/07/17 08:44:34;;;;;;;8.63;4.63;;;;;;;;;;4969853;29;20198;-76
2023/07/17 08:47:01;;;;;;;6.65;3.45;;;;;;;;;;4956880;29;20038;-76
2023/07/17 08:49:27;;;;;;;8.98;3.58;;;;;;;;;;4941399;29;20031;-76
2023/07/17 08:51:54;;;;;;;12.07;4.80;;;;;;;;;;4956517;29;20458;-76
2023/07/17 08:57:34;;;;;;;9.13;3.45;;;;;;;;;;4885696;29;20529;-77
2023/07/17 09:00:00;;;;;;;8.68;3.60;;;;;;;;;;4880109;29;20059;-77
2023/07/17 09:02:26;;;;;;;8.30;4.20;;;;;;;;;;4879389;29;20157;-76
2023/07/17 09:04:51;;;;;;;14.45;3.95;;;;;;;;;;4879151;29;20552;-76
2023/07/17 09:07:17;;;;;;;10.07;3.50;;;;;;;;;;4879317;29;20116;-76
2023/07/17 09:09:43;;;;;;;9.18;3.72;;;;;;;;;;4879690;29;20052;-77
2023/07/17 09:12:10;;;;;;;6.70;3.35;;;;;;;;;;4879092;29;20413;-76
2023/07/17 09:14:36;;;;;;;8.80;4.25;;;;;;;;;;4879367;29;20064;-77
2023/07/17 09:17:07;;;;;;;7.25;3.17;;;;;;;;;;4880160;29;20496;-75
2023/07/17 09:19:33;;;;;;;8.15;2.97;;;;;;;;;;4880066;29;20508;-74
2023/07/17 09:22:00;;;;;;;16.67;3.35;;;;;;;;;;4878672;29;20037;-76
2023/07/17 09:24:27;;;;;;;13.20;3.40;;;;;;;;;;4878647;29;20047;-76
2023/07/17 09:26:56;;;;;;;9.07;3.40;;;;;;;;;;4878100;29;20041;-76
2023/07/17 09:29:23;;;;;;;10.75;3.30;;;;;;;;;;4951869;29;20055;-74
2023/07/17 09:31:49;;;;;;;11.75;3.53;;;;;;;;;;4939320;29;20027;-76
2023/07/17 09:34:15;;;;;;;11.75;3.88;;;;;;;;;;4939182;29;20042;-75
2023/07/17 09:36:41;;;;;;;17.85;3.70;;;;;;;;;;4955177;28;20031;-77
2023/07/17 09:39:07;;;;;;;14.23;3.53;;;;;;;;;;4939385;29;20035;-78
2023/07/17 09:41:33;;;;;;;10.90;3.28;;;;;;;;;;4956467;29;20111;-76
2023/07/17 09:44:00;;;;;;;6.63;3.15;;;;;;;;;;4939637;29;20509;-76
2023/07/17 09:46:27;;;;;;;8.60;3.00;;;;;;;;;;4923656;28;20121;-75
2023/07/17 09:48:53;;;;;;;11.70;2.70;;;;;;;;;;4939369;29;20483;-77
2023/07/17 09:51:20;;;;;;;9.43;2.88;;;;;;;;;;4939653;29;20027;-77
2023/07/17 09:53:45;;;;;;;13.35;3.28;;;;;;;;;;4939057;29;20502;-76
2023/07/17 09:56:13;;;;;;;6.88;2.80;;;;;;;;;;4956216;29;20031;-76
2023/07/17 09:58:43;;;;;;;6.97;2.80;;;;;;;;;;4939369;29;20035;-76
2023/07/17 10:01:08;;;;;;;9.20;3.20;;;;;;;;;;4939341;29;20076;-78
2023/07/17 10:03:34;;;;;;;10.20;3.00;;;;;;;;;;4938925;29;20085;-76
2023/07/17 10:06:00;;;;;;;7.90;3.20;;;;;;;;;;4956148;29;20027;-74
2023/07/17 10:08:28;;;;;;;9.43;3.03;;;;;;;;;;4939050;29;20054;-74
2023/07/17 10:10:54;;;;;;;6.50;2.85;;;;;;;;;;4955930;29;20031;-74
2023/07/17 10:13:19;;;;;;;10.43;3.08;;;;;;;;;;4956229;29;20023;-77
2023/07/17 10:15:45;;;;;;;9.48;3.35;;;;;;;;;;4956232;29;20483;-76
2023/07/17 10:18:11;;;;;;;12.82;3.50;;;;;;;;;;4955433;28;20031;-76
2023/07/17 10:20:38;;;;;;;4.57;2.58;;;;;;;;;;4922519;29;20027;-76
2023/07/17 10:23:05;;;;;;;10.77;3.20;;;;;;;;;;4955609;29;20035;-77
2023/07/17 10:25:31;;;;;;;8.77;3.20;;;;;;;;;;4955612;29;20091;-75
2023/07/17 10:28:03;;;;;;;6.65;2.50;;;;;;;;;;4938101;29;20039;-76
2023/07/17 10:30:38;;;;;;;11.48;3.67;;;;;;;;;;4955830;29;20102;-77
2023/07/17 10:33:05;;;;;;;9.68;3.60;;;;;;;;;;4955904;29;20027;-76
2023/07/17 10:35:51;;;;;;;10.07;2.90;;;;;;;;;;4922340;29;20522;-76
2023/07/17 10:38:17;;;;;;;7.97;3.22;;;;;;;;;;4955127;28;20047;-76
2023/07/17 10:40:44;;;;;;;9.20;3.00;;;;;;;;;;4955483;29;20023;-77
2023/07/17 10:43:10;;;;;;;8.00;3.78;;;;;;;;;;4955605;29;20031;-77
2023/07/17 10:45:36;;;;;;;6.45;2.92;;;;;;;;;;4954937;29;20028;-76
2023/07/17 10:48:02;;;;;;;11.15;3.50;;;;;;;;;;4922176;29;20038;-77
2023/07/17 10:50:27;;;;;;;7.90;3.38;;;;;;;;;;4937844;29;20039;-77
2023/07/17 10:52:55;;;;;;;8.13;3.05;;;;;;;;;;4955112;29;20518;-77
2023/07/17 10:55:21;;;;;;;7.82;3.25;;;;;;;;;;4937877;29;20058;-77
2023/07/17 10:57:47;;;;;;;9.95;3.13;;;;;;;;;;4938069;29;20499;-76
2023/07/17 11:00:13;;;;;;;7.20;3.00;;;;;;;;;;4937754;29;20102;-76
2023/07/17 11:02:39;;;;;;;13.68;2.97;;;;;;;;;;4954799;29;20027;-76
2023/07/17 11:05:05;;;;;;;8.68;3.30;;;;;;;;;;4938032;29;20027;-76
2023/07/17 11:07:33;;;;;;;7.85;2.80;;;;;;;;;;4955489;28;20494;-76
2023/07/17 11:09:59;;;;;;;11.45;3.05;;;;;;;;;;4956422;29;20240;-76
2023/07/17 11:12:25;;;;;;;12.57;3.17;;;;;;;;;;4956230;29;20059;-76
2023/07/17 11:14:52;;;;;;;6.88;2.70;;;;;;;;;;4941299;29;20043;-76
2023/07/17 11:17:17;;;;;;;9.38;3.20;;;;;;;;;;4945221;29;20046;-77
2023/07/17 11:19:44;;;;;;;8.55;2.85;;;;;;;;;;4973466;29;20027;-76
2023/07/17 11:22:10;;;;;;;8.77;2.80;;;;;;;;;;4954449;29;20031;-75
2023/07/17 11:24:35;;;;;;;6.50;2.72;;;;;;;;;;4955407;29;20054;-76
2023/07/17 11:27:01;;;;;;;7.60;2.85;;;;;;;;;;4972548;28;20039;-75
2023/07/17 11:29:27;;;;;;;10.27;2.63;;;;;;;;;;4956166;29;20055;-75
2023/07/17 11:31:56;;;;;;;11.00;2.70;;;;;;;;;;4958054;29;20035;-77
2023/07/17 11:34:22;;;;;;;7.15;2.58;;;;;;;;;;4954173;29;20051;-77
2023/07/17 11:36:48;;;;;;;9.10;2.42;;;;;;;;;;4954623;28;20034;-76
2023/07/17 11:39:14;;;;;;;6.07;2.67;;;;;;;;;;4937281;29;20035;-76
2023/07/17 11:41:41;;;;;;;7.10;2.60;;;;;;;;;;4937102;29;20031;-74
2023/07/17 11:44:07;;;;;;;7.93;2.60;;;;;;;;;;4937102;29;20101;-76
2023/07/17 11:46:33;;;;;;;6.40;2.53;;;;;;;;;;4954179;28;20031;-76
2023/07/17 11:48:59;;;;;;;7.57;2.60;;;;;;;;;;4937110;29;20031;-75
2023/07/17 11:51:25;;;;;;;9.63;2.83;;;;;;;;;;4953963;29;20392;-76
2023/07/17 11:53:54;;;;;;;9.88;3.00;;;;;;;;;;4954120;29;20225;-76
2023/07/17 11:56:20;;;;;;;5.72;2.70;;;;;;;;;;4936842;28;20031;-76
2023/07/17 11:58:52;;;;;;;6.07;2.67;;;;;;;;;;4937502;29;20581;-77
2023/07/17 12:01:17;;;;;;;5.70;2.28;;;;;;;;;;4957912;29;20138;-76
2023/07/17 12:03:43;;;;;;;8.10;2.75;;;;;;;;;;4957787;29;20106;-76
2023/07/17 12:06:09;;;;;;;7.75;2.42;;;;;;;;;;4957905;29;20559;-76
2023/07/17 12:08:37;;;;;;;9.70;2.55;;;;;;;;;;4924846;29;20039;-76
2023/07/17 12:11:02;;;;;;;8.32;2.50;;;;;;;;;;4957578;29;20055;-75
2023/07/17 12:13:28;;;;;;;5.60;2.55;;;;;;;;;;4940658;29;20422;-76
2023/07/17 12:15:53;;;;;;;10.57;2.90;;;;;;;;;;4940542;29;20041;-76
2023/07/17 12:18:19;;;;;;;9.68;2.65;;;;;;;;;;4957577;28;20078;-76
2023/07/17 12:20:44;;;;;;;7.55;3.00;;;;;;;;;;4924456;29;20042;-74
2023/07/17 12:23:10;;;;;;;8.65;2.80;;;;;;;;;;4957300;29;20035;-75
2023/07/17 12:25:39;;;;;;;7.40;2.55;;;;;;;;;;4957271;29;20042;-76
2023/07/17 12:28:05;;;;;;;9.25;3.08;;;;;;;;;;4956982;28;20035;-76
2023/07/17 12:30:31;;;;;;;7.50;2.55;;;;;;;;;;4939885;29;20038;-76
2023/07/17 12:32:57;;;;;;;7.47;2.55;;;;;;;;;;4939780;29;20510;-76
2023/07/17 12:35:22;;;;;;;12.00;2.92;;;;;;;;;;4939813;29;20052;-75
2023/07/17 12:37:48;;;;;;;8.23;2.38;;;;;;;;;;4957129;28;20038;-77
2023/07/17 12:40:13;;;;;;;7.88;2.50;;;;;;;;;;4939880;29;20032;-77
2023/07/17 12:42:39;;;;;;;8.80;2.90;;;;;;;;;;4956683;29;20412;-76
2023/07/17 12:45:05;;;;;;;7.60;2.35;;;;;;;;;;4939545;29;20098;-75
2023/07/17 12:47:30;;;;;;;11.60;2.67;;;;;;;;;;4939657;29;20035;-76
2023/07/17 12:49:57;;;;;;;11.18;3.30;;;;;;;;;;4956762;29;20027;-77
2023/07/17 12:52:24;;;;;;;4.82;2.83;;;;;;;;;;4939326;29;20039;-74
2023/07/17 12:54:49;;;;;;;12.07;3.03;;;;;;;;;;4939787;29;20109;-77
2023/07/17 12:57:15;;;;;;;10.02;2.85;;;;;;;;;;4956678;28;20499;-77
2023/07/17 12:59:41;;;;;;;8.85;2.38;;;;;;;;;;4956563;29;20027;-74
2023/07/17 13:02:07;;;;;;;11.32;2.92;;;;;;;;;;4939295;29;20039;-76
2023/07/17 13:04:33;;;;;;;12.32;3.03;;;;;;;;;;4923947;29;20039;-76
2023/07/17 13:06:58;;;;;;;7.88;2.88;;;;;;;;;;4939352;29;20570;-75
2023/07/17 13:09:24;;;;;;;7.18;2.67;;;;;;;;;;4938768;28;20024;-77
2023/07/17 13:11:49;;;;;;;5.53;2.50;;;;;;;;;;4939438;29;20609;-76
2023/07/17 13:14:15;;;;;;;7.43;2.40;;;;;;;;;;4956184;29;20031;-75
2023/07/17 13:16:40;;;;;;;6.80;2.70;;;;;;;;;;4956263;28;20534;-76
2023/07/17 13:19:06;;;;;;;7.20;3.00;;;;;;;;;;4923882;29;20034;-77
2023/07/17 13:21:32;;;;;;;6.40;2.45;;;;;;;;;;4939149;29;20031;-76
2023/07/17 13:24:00;;;;;;;8.00;2.25;;;;;;;;;;4956460;29;20558;-75
2023/07/17 13:26:29;;;;;;;7.38;2.85;;;;;;;;;;4956625;28;20027;-76
2023/07/17 13:28:55;;;;;;;5.93;2.53;;;;;;;;;;4939725;29;20031;-75
2023/07/17 13:31:21;;;;;;;9.20;2.67;;;;;;;;;;4956661;29;20027;-76
2023/07/17 13:33:46;;;;;;;12.98;2.90;;;;;;;;;;4956639;29;20038;-77
2023/07/17 13:36:12;;;;;;;8.80;3.00;;;;;;;;;;4956315;28;20035;-76
2023/07/17 13:38:38;;;;;;;6.25;2.85;;;;;;;;;;4956641;29;20495;-74
2023/07/17 13:41:10;;;;;;;7.55;2.40;;;;;;;;;;4938614;29;20426;-77
2023/07/17 13:43:35;;;;;;;7.97;2.78;;;;;;;;;;4939369;29;20032;-76
2023/07/17 13:46:01;;;;;;;8.73;2.88;;;;;;;;;;4939287;29;20109;-75
2023/07/17 13:48:26;;;;;;;10.13;2.65;;;;;;;;;;4940021;29;20106;-76
2023/07/17 13:50:52;;;;;;;7.03;2.90;;;;;;;;;;4963139;29;20030;-75
2023/07/17 13:53:17;;;;;;;10.90;2.58;;;;;;;;;;4970375;29;20053;-76
2023/07/17 13:55:43;;;;;;;6.72;3.10;;;;;;;;;;4954082;29;20041;-77
2023/07/17 13:58:09;;;;;;;10.90;3.53;;;;;;;;;;4971862;28;20118;-77
2023/07/17 14:00:34;;;;;;;10.77;3.00;;;;;;;;;;4969971;29;20113;-75
2023/07/17 14:03:01;;;;;;;6.07;2.63;;;;;;;;;;4947529;29;20039;-77
2023/07/17 14:05:26;;;;;;;10.35;2.83;;;;;;;;;;4955151;29;20035;-76
2023/07/17 14:07:52;;;;;;;8.43;2.67;;;;;;;;;;4938530;29;20394;-77
2023/07/17 14:10:17;;;;;;;7.20;3.10;;;;;;;;;;4955320;29;20027;-77
2023/07/17 14:12:43;;;;;;;8.20;2.65;;;;;;;;;;4956416;29;20376;-76
2023/07/17 14:15:08;;;;;;;10.07;2.85;;;;;;;;;;4956310;29;20073;-76
2023/07/17 14:17:34;;;;;;;10.90;3.22;;;;;;;;;;4939072;29;20031;-76
2023/07/17 14:19:59;;;;;;;7.75;2.70;;;;;;;;;;4939101;29;20063;-77
2023/07/17 14:22:25;;;;;;;7.05;2.60;;;;;;;;;;4955256;28;20035;-75
2023/07/17 14:24:51;;;;;;;8.15;3.25;;;;;;;;;;4938383;29;20086;-77
2023/07/17 14:27:16;;;;;;;5.10;2.45;;;;;;;;;;4955335;28;20122;-77
2023/07/17 14:29:42;;;;;;;10.98;2.97;;;;;;;;;;4955248;29;20106;-75
2023/07/17 14:32:09;;;;;;;6.68;2.70;;;;;;;;;;4954957;29;20031;-76
2023/07/17 14:34:37;;;;;;;9.38;3.05;;;;;;;;;;4938135;29;20035;-76